Aldine, Texas
Current Conditions -  °F | °C
As of 11:53 PM on Sunday 23 Nov 2014 (Local Time) from KIAH Reporting Station
Clear Clear  
Wind Chill: 63°   Ceiling: Unl
Heat Index: 63°   Visibility: 10mi
Dew Point: 57°   Wind: 8mph
Humidity: 81%   Direction: 310°NW
Pressure: 29.75"   Gusts: NA
Location:  29.93°N, 95.38°W
Report Text: KIAH 240553Z 31007KT 10SM CLR 17/14 A2975 RMK AO2 SLP073 T01720139 10233 20172 402670161 53033
Loading
Personal Weather Stations






























Interactive Weather Map New forecast layout! Learn more

10-Day Weather Forecast

Advertisements
Track Severe Weather on mobile